sensor_id;sensor_type;location;lat;lon;timestamp;P1;P2;P0
42510;PMS7003;28141;51.120;17.114;2022-12-07T00:03:08;13;6;4
42510;PMS7003;28141;51.120;17.114;2022-12-07T00:06:12;13;6;4
42510;PMS7003;28141;51.120;17.114;2022-12-07T00:09:17;13;6;4
42510;PMS7003;28141;51.120;17.114;2022-12-07T00:12:22;13;7;4
42510;PMS7003;28141;51.120;17.114;2022-12-07T00:15:25;14;7;4
42510;PMS7003;28141;51.120;17.114;2022-12-07T00:18:28;14;6;4
42510;PMS7003;28141;51.120;17.114;2022-12-07T00:21:33;13;6;4
42510;PMS7003;28141;51.120;17.114;2022-12-07T00:24:37;13;6;4
42510;PMS7003;28141;51.120;17.114;2022-12-07T00:28:06;14;5;4
42510;PMS7003;28141;51.120;17.114;2022-12-07T00:31:14;13;5;3
42510;PMS7003;28141;51.120;17.114;2022-12-07T00:34:20;12;5;3
42510;PMS7003;28141;51.120;17.114;2022-12-07T00:37:24;15;7;4
42510;PMS7003;28141;51.120;17.114;2022-12-07T00:40:27;14;7;4
42510;PMS7003;28141;51.120;17.114;2022-12-07T00:43:30;12;4;2
42510;PMS7003;28141;51.120;17.114;2022-12-07T00:46:34;14;5;3
42510;PMS7003;28141;51.120;17.114;2022-12-07T00:49:37;14;5;3
42510;PMS7003;28141;51.120;17.114;2022-12-07T00:53:05;12;5;3
42510;PMS7003;28141;51.120;17.114;2022-12-07T00:56:09;13;5;3
42510;PMS7003;28141;51.120;17.114;2022-12-07T00:59:17;12;5;3
42510;PMS7003;28141;51.120;17.114;2022-12-07T01:02:21;12;5;3
42510;PMS7003;28141;51.120;17.114;2022-12-07T01:05:24;14;5;3
42510;PMS7003;28141;51.120;17.114;2022-12-07T01:08:28;11;5;3
42510;PMS7003;28141;51.120;17.114;2022-12-07T01:11:32;12;4;3
42510;PMS7003;28141;51.120;17.114;2022-12-07T01:14:36;12;4;2
42510;PMS7003;28141;51.120;17.114;2022-12-07T01:18:03;12;4;3
42510;PMS7003;28141;51.120;17.114;2022-12-07T01:21:09;11;4;3
42510;PMS7003;28141;51.120;17.114;2022-12-07T01:24:17;12;5;2
42510;PMS7003;28141;51.120;17.114;2022-12-07T01:27:20;11;4;2
42510;PMS7003;28141;51.120;17.114;2022-12-07T01:30:24;11;4;2
42510;PMS7003;28141;51.120;17.114;2022-12-07T01:33:28;10;3;2
42510;PMS7003;28141;51.120;17.114;2022-12-07T01:36:34;12;4;3
42510;PMS7003;28141;51.120;17.114;2022-12-07T01:39:39;12;3;2
42510;PMS7003;28141;51.120;17.114;2022-12-07T01:46:20;11;4;3
42510;PMS7003;28141;51.120;17.114;2022-12-07T01:52:38;12;4;3
42510;PMS7003;28141;51.120;17.114;2022-12-07T01:55:45;11;4;3
42510;PMS7003;28141;51.120;17.114;2022-12-07T01:59:18;11;4;2
42510;PMS7003;28141;51.120;17.114;2022-12-07T02:02:43;11;4;2
42510;PMS7003;28141;51.120;17.114;2022-12-07T02:05:41;10;3;2
42510;PMS7003;28141;51.120;17.114;2022-12-07T02:08:46;10;3;2
42510;PMS7003;28141;51.120;17.114;2022-12-07T02:11:50;10;3;2
42510;PMS7003;28141;51.120;17.114;2022-12-07T02:14:54;10;2;2
42510;PMS7003;28141;51.120;17.114;2022-12-07T02:21:48;11;3;2
42510;PMS7003;28141;51.120;17.114;2022-12-07T02:24:57;11;3;2
42510;PMS7003;28141;51.120;17.114;2022-12-07T02:31:56;11;4;2
42510;PMS7003;28141;51.120;17.114;2022-12-07T02:35:09;9;2;1
42510;PMS7003;28141;51.120;17.114;2022-12-07T02:38:20;9;2;1
42510;PMS7003;28141;51.120;17.114;2022-12-07T02:41:39;10;2;1
42510;PMS7003;28141;51.120;17.114;2022-12-07T02:45:10;8;2;1
42510;PMS7003;28141;51.120;17.114;2022-12-07T02:48:18;10;3;2
42510;PMS7003;28141;51.120;17.114;2022-12-07T02:51:23;10;3;2
42510;PMS7003;28141;51.120;17.114;2022-12-07T02:54:26;9;3;1
42510;PMS7003;28141;51.120;17.114;2022-12-07T02:57:41;10;2;1
42510;PMS7003;28141;51.120;17.114;2022-12-07T03:04:29;12;4;1
42510;PMS7003;28141;51.120;17.114;2022-12-07T03:07:44;9;1;1
42510;PMS7003;28141;51.120;17.114;2022-12-07T03:14:12;9;2;2
42510;PMS7003;28141;51.120;17.114;2022-12-07T03:17:45;8;2;1
42510;PMS7003;28141;51.120;17.114;2022-12-07T03:20:52;10;2;1
42510;PMS7003;28141;51.120;17.114;2022-12-07T03:24:01;9;2;1
42510;PMS7003;28141;51.120;17.114;2022-12-07T03:27:13;11;3;2
42510;PMS7003;28141;51.120;17.114;2022-12-07T03:30:26;10;2;1
42510;PMS7003;28141;51.120;17.114;2022-12-07T03:37:17;10;2;1
42510;PMS7003;28141;51.120;17.114;2022-12-07T03:40:32;10;2;1
42510;PMS7003;28141;51.120;17.114;2022-12-07T03:43:42;10;2;1
42510;PMS7003;28141;51.120;17.114;2022-12-07T03:47:20;9;2;1
42510;PMS7003;28141;51.120;17.114;2022-12-07T03:50:35;9;2;1
42510;PMS7003;28141;51.120;17.114;2022-12-07T03:53:44;9;2;1
42510;PMS7003;28141;51.120;17.114;2022-12-07T03:56:52;9;1;1
42510;PMS7003;28141;51.120;17.114;2022-12-07T03:59:58;9;2;1
42510;PMS7003;28141;51.120;17.114;2022-12-07T04:03:03;9;2;1
42510;PMS7003;28141;51.120;17.114;2022-12-07T04:06:30;11;3;1
42510;PMS7003;28141;51.120;17.114;2022-12-07T04:09:34;9;2;1
42510;PMS7003;28141;51.120;17.114;2022-12-07T04:12:38;8;2;1
42510;PMS7003;28141;51.120;17.114;2022-12-07T04:15:41;9;2;1
42510;PMS7003;28141;51.120;17.114;2022-12-07T04:18:44;10;3;2
42510;PMS7003;28141;51.120;17.114;2022-12-07T04:21:48;9;2;1
42510;PMS7003;28141;51.120;17.114;2022-12-07T04:24:52;8;1;1
42510;PMS7003;28141;51.120;17.114;2022-12-07T04:27:55;8;1;0
42510;PMS7003;28141;51.120;17.114;2022-12-07T04:30:58;8;1;1
42510;PMS7003;28141;51.120;17.114;2022-12-07T04:34:26;8;1;1
42510;PMS7003;28141;51.120;17.114;2022-12-07T04:37:29;10;2;1
42510;PMS7003;28141;51.120;17.114;2022-12-07T04:40:33;7;1;0
42510;PMS7003;28141;51.120;17.114;2022-12-07T04:43:37;7;0;0
42510;PMS7003;28141;51.120;17.114;2022-12-07T04:46:40;7;0;0
42510;PMS7003;28141;51.120;17.114;2022-12-07T04:49:44;8;1;0
42510;PMS7003;28141;51.120;17.114;2022-12-07T04:52:48;8;1;0
42510;PMS7003;28141;51.120;17.114;2022-12-07T04:55:51;7;0;0
42510;PMS7003;28141;51.120;17.114;2022-12-07T04:58:54;7;0;0
42510;PMS7003;28141;51.120;17.114;2022-12-07T05:02:22;7;0;0
42510;PMS7003;28141;51.120;17.114;2022-12-07T05:05:26;7;1;0
42510;PMS7003;28141;51.120;17.114;2022-12-07T05:08:29;7;1;0
42510;PMS7003;28141;51.120;17.114;2022-12-07T05:11:33;8;1;0
42510;PMS7003;28141;51.120;17.114;2022-12-07T05:14:42;7;1;0
42510;PMS7003;28141;51.120;17.114;2022-12-07T05:17:46;7;1;0
42510;PMS7003;28141;51.120;17.114;2022-12-07T05:20:49;9;2;0
42510;PMS7003;28141;51.120;17.114;2022-12-07T05:23:53;8;1;1
42510;PMS7003;28141;51.120;17.114;2022-12-07T05:27:24;7;1;0
42510;PMS7003;28141;51.120;17.114;2022-12-07T05:30:28;8;0;0
42510;PMS7003;28141;51.120;17.114;2022-12-07T05:33:32;7;1;1
42510;PMS7003;28141;51.120;17.114;2022-12-07T05:36:36;8;0;0
42510;PMS7003;28141;51.120;17.114;2022-12-07T05:39:39;10;1;0
42510;PMS7003;28141;51.120;17.114;2022-12-07T05:42:45;9;1;0
42510;PMS7003;28141;51.120;17.114;2022-12-07T05:45:48;7;1;1
42510;PMS7003;28141;51.120;17.114;2022-12-07T05:48:52;9;2;0
42510;PMS7003;28141;51.120;17.114;2022-12-07T05:51:55;9;2;1
42510;PMS7003;28141;51.120;17.114;2022-12-07T05:55:23;8;2;0
42510;PMS7003;28141;51.120;17.114;2022-12-07T05:58:26;8;1;1
42510;PMS7003;28141;51.120;17.114;2022-12-07T06:01:41;9;2;0
42510;PMS7003;28141;51.120;17.114;2022-12-07T06:04:46;10;2;2
42510;PMS7003;28141;51.120;17.114;2022-12-07T06:07:49;10;2;1
42510;PMS7003;28141;51.120;17.114;2022-12-07T06:10:53;12;3;1
42510;PMS7003;28141;51.120;17.114;2022-12-07T06:14:32;10;3;1
42510;PMS7003;28141;51.120;17.114;2022-12-07T06:17:36;9;2;1
42510;PMS7003;28141;51.120;17.114;2022-12-07T06:20:39;9;3;1
42510;PMS7003;28141;51.120;17.114;2022-12-07T06:23:43;10;4;2
42510;PMS7003;28141;51.120;17.114;2022-12-07T06:26:46;9;2;1
42510;PMS7003;28141;51.120;17.114;2022-12-07T06:29:50;11;4;2
42510;PMS7003;28141;51.120;17.114;2022-12-07T06:32:53;10;3;1
42510;PMS7003;28141;51.120;17.114;2022-12-07T06:35:57;9;3;2
42510;PMS7003;28141;51.120;17.114;2022-12-07T06:39:00;11;4;2
42510;PMS7003;28141;51.120;17.114;2022-12-07T06:42:30;12;5;3
42510;PMS7003;28141;51.120;17.114;2022-12-07T06:45:33;12;4;3
42510;PMS7003;28141;51.120;17.114;2022-12-07T06:48:37;11;4;3
42510;PMS7003;28141;51.120;17.114;2022-12-07T06:51:40;12;5;3
42510;PMS7003;28141;51.120;17.114;2022-12-07T06:54:44;12;5;3
42510;PMS7003;28141;51.120;17.114;2022-12-07T06:57:48;11;4;2
42510;PMS7003;28141;51.120;17.114;2022-12-07T07:00:51;12;4;3
42510;PMS7003;28141;51.120;17.114;2022-12-07T07:03:55;13;5;3
42510;PMS7003;28141;51.120;17.114;2022-12-07T07:06:58;11;4;4
42510;PMS7003;28141;51.120;17.114;2022-12-07T07:10:26;12;5;2
42510;PMS7003;28141;51.120;17.114;2022-12-07T07:13:30;12;6;3
42510;PMS7003;28141;51.120;17.114;2022-12-07T07:16:34;13;5;4
42510;PMS7003;28141;51.120;17.114;2022-12-07T07:19:37;12;5;3
42510;PMS7003;28141;51.120;17.114;2022-12-07T07:22:40;13;5;3
42510;PMS7003;28141;51.120;17.114;2022-12-07T07:25:44;13;6;5
42510;PMS7003;28141;51.120;17.114;2022-12-07T07:28:48;16;8;5
42510;PMS7003;28141;51.120;17.114;2022-12-07T07:31:52;11;4;3
42510;PMS7003;28141;51.120;17.114;2022-12-07T07:34:55;12;5;4
42510;PMS7003;28141;51.120;17.114;2022-12-07T07:38:23;14;6;3
42510;PMS7003;28141;51.120;17.114;2022-12-07T07:41:26;13;6;3
42510;PMS7003;28141;51.120;17.114;2022-12-07T07:44:30;13;5;3
42510;PMS7003;28141;51.120;17.114;2022-12-07T07:47:33;13;5;3
42510;PMS7003;28141;51.120;17.114;2022-12-07T07:50:37;13;5;3
42510;PMS7003;28141;51.120;17.114;2022-12-07T07:53:41;13;5;4
42510;PMS7003;28141;51.120;17.114;2022-12-07T07:56:44;14;7;4
42510;PMS7003;28141;51.120;17.114;2022-12-07T07:59:48;13;6;4
42510;PMS7003;28141;51.120;17.114;2022-12-07T08:02:51;16;6;4
42510;PMS7003;28141;51.120;17.114;2022-12-07T08:06:19;14;6;4
42510;PMS7003;28141;51.120;17.114;2022-12-07T08:09:23;16;7;4
42510;PMS7003;28141;51.120;17.114;2022-12-07T08:12:26;16;7;4
42510;PMS7003;28141;51.120;17.114;2022-12-07T08:15:30;13;5;4
42510;PMS7003;28141;51.120;17.114;2022-12-07T08:18:37;11;5;4
42510;PMS7003;28141;51.120;17.114;2022-12-07T08:21:42;17;9;5
42510;PMS7003;28141;51.120;17.114;2022-12-07T08:24:46;15;6;4
42510;PMS7003;28141;51.120;17.114;2022-12-07T08:27:50;14;7;4
42510;PMS7003;28141;51.120;17.114;2022-12-07T08:31:18;12;5;3
42510;PMS7003;28141;51.120;17.114;2022-12-07T08:34:22;14;6;5
42510;PMS7003;28141;51.120;17.114;2022-12-07T08:37:25;14;6;4
42510;PMS7003;28141;51.120;17.114;2022-12-07T08:40:29;13;6;3
42510;PMS7003;28141;51.120;17.114;2022-12-07T08:43:33;13;6;4
42510;PMS7003;28141;51.120;17.114;2022-12-07T08:46:38;13;4;3
42510;PMS7003;28141;51.120;17.114;2022-12-07T08:49:50;13;6;4
42510;PMS7003;28141;51.120;17.114;2022-12-07T08:53:21;12;6;4
42510;PMS7003;28141;51.120;17.114;2022-12-07T08:56:25;13;5;3
42510;PMS7003;28141;51.120;17.114;2022-12-07T08:59:29;14;6;4
42510;PMS7003;28141;51.120;17.114;2022-12-07T09:02:35;13;5;3
42510;PMS7003;28141;51.120;17.114;2022-12-07T09:05:38;14;5;3
42510;PMS7003;28141;51.120;17.114;2022-12-07T09:08:43;12;5;3
42510;PMS7003;28141;51.120;17.114;2022-12-07T09:11:50;11;4;2
42510;PMS7003;28141;51.120;17.114;2022-12-07T09:14:54;14;6;4
42510;PMS7003;28141;51.120;17.114;2022-12-07T09:17:58;11;4;3
42510;PMS7003;28141;51.120;17.114;2022-12-07T09:21:27;12;4;3
42510;PMS7003;28141;51.120;17.114;2022-12-07T09:24:31;12;6;4
42510;PMS7003;28141;51.120;17.114;2022-12-07T09:27:37;11;4;3
42510;PMS7003;28141;51.120;17.114;2022-12-07T09:33:55;11;5;3
42510;PMS7003;28141;51.120;17.114;2022-12-07T09:37:00;10;3;1
42510;PMS7003;28141;51.120;17.114;2022-12-07T09:40:06;11;4;3
42510;PMS7003;28141;51.120;17.114;2022-12-07T09:43:20;11;5;3
42510;PMS7003;28141;51.120;17.114;2022-12-07T09:46:50;11;4;2
42510;PMS7003;28141;51.120;17.114;2022-12-07T09:49:59;11;5;3
42510;PMS7003;28141;51.120;17.114;2022-12-07T09:53:08;12;3;2
42510;PMS7003;28141;51.120;17.114;2022-12-07T09:56:18;11;4;2
42510;PMS7003;28141;51.120;17.114;2022-12-07T09:59:23;11;5;3
42510;PMS7003;28141;51.120;17.114;2022-12-07T10:06:15;12;4;2
42510;PMS7003;28141;51.120;17.114;2022-12-07T10:09:19;10;4;3
42510;PMS7003;28141;51.120;17.114;2022-12-07T10:12:24;10;3;2
42510;PMS7003;28141;51.120;17.114;2022-12-07T10:18:43;12;3;2
42510;PMS7003;28141;51.120;17.114;2022-12-07T10:28:43;15;6;4
42510;PMS7003;28141;51.120;17.114;2022-12-07T10:31:50;15;7;4
42510;PMS7003;28141;51.120;17.114;2022-12-07T10:38:17;15;6;4
42510;PMS7003;28141;51.120;17.114;2022-12-07T10:41:21;13;3;3
42510;PMS7003;28141;51.120;17.114;2022-12-07T10:44:28;14;6;4
42510;PMS7003;28141;51.120;17.114;2022-12-07T10:48:08;13;5;3
42510;PMS7003;28141;51.120;17.114;2022-12-07T10:54:37;12;5;2
42510;PMS7003;28141;51.120;17.114;2022-12-07T10:57:52;13;4;2
42510;PMS7003;28141;51.120;17.114;2022-12-07T11:01:30;13;5;3
42510;PMS7003;28141;51.120;17.114;2022-12-07T11:07:55;11;4;3
42510;PMS7003;28141;51.120;17.114;2022-12-07T11:18:22;11;4;2
42510;PMS7003;28141;51.120;17.114;2022-12-07T11:24:55;11;4;2
42510;PMS7003;28141;51.120;17.114;2022-12-07T11:28:06;9;3;1
42510;PMS7003;28141;51.120;17.114;2022-12-07T11:31:50;9;3;2
42510;PMS7003;28141;51.120;17.114;2022-12-07T11:35:02;10;3;1
42510;PMS7003;28141;51.120;17.114;2022-12-07T11:38:17;12;3;2
42510;PMS7003;28141;51.120;17.114;2022-12-07T11:41:29;9;3;1
42510;PMS7003;28141;51.120;17.114;2022-12-07T11:45:15;10;3;1
42510;PMS7003;28141;51.120;17.114;2022-12-07T11:48:24;9;3;2
42510;PMS7003;28141;51.120;17.114;2022-12-07T11:51:37;9;2;2
42510;PMS7003;28141;51.120;17.114;2022-12-07T11:54:43;10;3;1
42510;PMS7003;28141;51.120;17.114;2022-12-07T11:57:52;9;2;1
42510;PMS7003;28141;51.120;17.114;2022-12-07T12:08:11;10;3;1
42510;PMS7003;28141;51.120;17.114;2022-12-07T12:11:26;10;3;1
42510;PMS7003;28141;51.120;17.114;2022-12-07T12:21:36;8;2;1
42510;PMS7003;28141;51.120;17.114;2022-12-07T12:24:40;10;2;1
42510;PMS7003;28141;51.120;17.114;2022-12-07T12:27:47;9;2;1
42510;PMS7003;28141;51.120;17.114;2022-12-07T12:37:51;9;2;1
42510;PMS7003;28141;51.120;17.114;2022-12-07T12:40:56;8;1;1
42510;PMS7003;28141;51.120;17.114;2022-12-07T12:44:00;9;2;2
42510;PMS7003;28141;51.120;17.114;2022-12-07T12:50:25;8;2;1
42510;PMS7003;28141;51.120;17.114;2022-12-07T12:53:35;9;2;1
42510;PMS7003;28141;51.120;17.114;2022-12-07T12:56:40;9;3;1
42510;PMS7003;28141;51.120;17.114;2022-12-07T13:00:21;9;3;2
42510;PMS7003;28141;51.120;17.114;2022-12-07T13:03:30;11;3;1
42510;PMS7003;28141;51.120;17.114;2022-12-07T13:06:36;11;3;2
42510;PMS7003;28141;51.120;17.114;2022-12-07T13:09:42;10;3;2
42510;PMS7003;28141;51.120;17.114;2022-12-07T13:19:57;9;2;1
42510;PMS7003;28141;51.120;17.114;2022-12-07T13:22:58;8;2;1
42510;PMS7003;28141;51.120;17.114;2022-12-07T13:29:21;10;3;2
42510;PMS7003;28141;51.120;17.114;2022-12-07T13:32:27;11;4;2
42510;PMS7003;28141;51.120;17.114;2022-12-07T13:35:35;12;4;3
42510;PMS7003;28141;51.120;17.114;2022-12-07T13:42:29;11;4;2
42510;PMS7003;28141;51.120;17.114;2022-12-07T13:45:34;10;4;3
42510;PMS7003;28141;51.120;17.114;2022-12-07T13:48:50;12;4;2
42510;PMS7003;28141;51.120;17.114;2022-12-07T13:51:56;9;2;1
42510;PMS7003;28141;51.120;17.114;2022-12-07T13:55:35;12;4;2
42510;PMS7003;28141;51.120;17.114;2022-12-07T13:58:39;10;3;2
42510;PMS7003;28141;51.120;17.114;2022-12-07T14:01:43;11;3;2
42510;PMS7003;28141;51.120;17.114;2022-12-07T14:04:51;11;3;2
42510;PMS7003;28141;51.120;17.114;2022-12-07T14:07:56;11;4;2
42510;PMS7003;28141;51.120;17.114;2022-12-07T14:11:01;12;4;2
42510;PMS7003;28141;51.120;17.114;2022-12-07T14:14:05;10;3;2
42510;PMS7003;28141;51.120;17.114;2022-12-07T14:17:15;12;4;2
42510;PMS7003;28141;51.120;17.114;2022-12-07T14:20:47;12;3;2
42510;PMS7003;28141;51.120;17.114;2022-12-07T14:27:15;11;3;2
42510;PMS7003;28141;51.120;17.114;2022-12-07T14:30:22;10;3;2
42510;PMS7003;28141;51.120;17.114;2022-12-07T14:33:28;10;3;2
42510;PMS7003;28141;51.120;17.114;2022-12-07T14:36:32;11;4;2
42510;PMS7003;28141;51.120;17.114;2022-12-07T14:40:04;12;5;3
42510;PMS7003;28141;51.120;17.114;2022-12-07T14:43:11;12;5;3
42510;PMS7003;28141;51.120;17.114;2022-12-07T14:46:17;13;5;3
42510;PMS7003;28141;51.120;17.114;2022-12-07T14:49:21;14;6;3
42510;PMS7003;28141;51.120;17.114;2022-12-07T14:52:26;13;5;4
42510;PMS7003;28141;51.120;17.114;2022-12-07T14:55:32;14;5;3
42510;PMS7003;28141;51.120;17.114;2022-12-07T14:58:35;14;6;3
42510;PMS7003;28141;51.120;17.114;2022-12-07T15:01:39;16;6;4
42510;PMS7003;28141;51.120;17.114;2022-12-07T15:04:42;12;5;3
42510;PMS7003;28141;51.120;17.114;2022-12-07T15:08:14;11;4;2
42510;PMS7003;28141;51.120;17.114;2022-12-07T15:11:18;11;3;2
42510;PMS7003;28141;51.120;17.114;2022-12-07T15:14:22;13;5;2
42510;PMS7003;28141;51.120;17.114;2022-12-07T15:17:25;10;3;2
42510;PMS7003;28141;51.120;17.114;2022-12-07T15:20:28;11;4;2
42510;PMS7003;28141;51.120;17.114;2022-12-07T15:23:32;11;5;2
42510;PMS7003;28141;51.120;17.114;2022-12-07T15:26:35;10;4;2
42510;PMS7003;28141;51.120;17.114;2022-12-07T15:29:39;10;3;2
42510;PMS7003;28141;51.120;17.114;2022-12-07T15:32:43;11;4;2
42510;PMS7003;28141;51.120;17.114;2022-12-07T15:35:46;10;3;2
42510;PMS7003;28141;51.120;17.114;2022-12-07T15:38:50;12;4;3
42510;PMS7003;28141;51.120;17.114;2022-12-07T15:42:19;14;4;2
42510;PMS7003;28141;51.120;17.114;2022-12-07T15:45:22;12;5;3
42510;PMS7003;28141;51.120;17.114;2022-12-07T15:48:26;11;4;3
42510;PMS7003;28141;51.120;17.114;2022-12-07T15:51:29;12;5;3
42510;PMS7003;28141;51.120;17.114;2022-12-07T15:54:33;11;4;3
42510;PMS7003;28141;51.120;17.114;2022-12-07T15:57:37;11;3;2
42510;PMS7003;28141;51.120;17.114;2022-12-07T16:00:41;10;3;2
42510;PMS7003;28141;51.120;17.114;2022-12-07T16:03:45;11;4;3
42510;PMS7003;28141;51.120;17.114;2022-12-07T16:06:49;11;4;3
42510;PMS7003;28141;51.120;17.114;2022-12-07T16:09:53;10;3;2
42510;PMS7003;28141;51.120;17.114;2022-12-07T16:13:22;13;5;3
42510;PMS7003;28141;51.120;17.114;2022-12-07T16:16:26;11;4;4
42510;PMS7003;28141;51.120;17.114;2022-12-07T16:19:30;11;4;3
42510;PMS7003;28141;51.120;17.114;2022-12-07T16:22:35;10;3;2
42510;PMS7003;28141;51.120;17.114;2022-12-07T16:25:38;10;3;2
42510;PMS7003;28141;51.120;17.114;2022-12-07T16:28:42;13;6;3
42510;PMS7003;28141;51.120;17.114;2022-12-07T16:31:46;11;4;3
42510;PMS7003;28141;51.120;17.114;2022-12-07T16:34:50;17;6;4
42510;PMS7003;28141;51.120;17.114;2022-12-07T16:37:53;11;3;2
42510;PMS7003;28141;51.120;17.114;2022-12-07T16:40:56;13;5;2
42510;PMS7003;28141;51.120;17.114;2022-12-07T16:47:37;12;5;4
42510;PMS7003;28141;51.120;17.114;2022-12-07T16:50:41;11;4;3
42510;PMS7003;28141;51.120;17.114;2022-12-07T16:53:45;11;4;3
42510;PMS7003;28141;51.120;17.114;2022-12-07T16:56:49;10;3;2
42510;PMS7003;28141;51.120;17.114;2022-12-07T16:59:53;12;4;3
42510;PMS7003;28141;51.120;17.114;2022-12-07T17:02:56;12;4;3
42510;PMS7003;28141;51.120;17.114;2022-12-07T17:06:00;10;4;2
42510;PMS7003;28141;51.120;17.114;2022-12-07T17:09:03;11;4;3
42510;PMS7003;28141;51.120;17.114;2022-12-07T17:12:36;11;5;3
42510;PMS7003;28141;51.120;17.114;2022-12-07T17:15:40;12;5;3
42510;PMS7003;28141;51.120;17.114;2022-12-07T17:18:43;11;3;2
42510;PMS7003;28141;51.120;17.114;2022-12-07T17:21:47;12;5;2
42510;PMS7003;28141;51.120;17.114;2022-12-07T17:24:51;13;5;3
42510;PMS7003;28141;51.120;17.114;2022-12-07T17:27:55;10;3;2
42510;PMS7003;28141;51.120;17.114;2022-12-07T17:31:01;11;4;2
42510;PMS7003;28141;51.120;17.114;2022-12-07T17:34:11;10;4;3
42510;PMS7003;28141;51.120;17.114;2022-12-07T17:37:43;10;4;3
42510;PMS7003;28141;51.120;17.114;2022-12-07T17:40:46;13;6;3
42510;PMS7003;28141;51.120;17.114;2022-12-07T17:43:50;11;4;2
42510;PMS7003;28141;51.120;17.114;2022-12-07T17:46:53;10;4;2
42510;PMS7003;28141;51.120;17.114;2022-12-07T17:50:00;10;3;2
42510;PMS7003;28141;51.120;17.114;2022-12-07T17:53:04;11;4;3
42510;PMS7003;28141;51.120;17.114;2022-12-07T17:56:13;12;4;3
42510;PMS7003;28141;51.120;17.114;2022-12-07T17:59:45;11;4;2
42510;PMS7003;28141;51.120;17.114;2022-12-07T18:02:48;11;4;3
42510;PMS7003;28141;51.120;17.114;2022-12-07T18:05:52;13;4;3
42510;PMS7003;28141;51.120;17.114;2022-12-07T18:08:56;12;3;2
42510;PMS7003;28141;51.120;17.114;2022-12-07T18:12:01;13;4;2
42510;PMS7003;28141;51.120;17.114;2022-12-07T18:15:05;10;4;2
42510;PMS7003;28141;51.120;17.114;2022-12-07T18:18:09;10;4;3
42510;PMS7003;28141;51.120;17.114;2022-12-07T18:21:14;9;3;2
42510;PMS7003;28141;51.120;17.114;2022-12-07T18:24:44;10;3;2
42510;PMS7003;28141;51.120;17.114;2022-12-07T18:27:47;9;2;2
42510;PMS7003;28141;51.120;17.114;2022-12-07T18:30:51;12;4;3
42510;PMS7003;28141;51.120;17.114;2022-12-07T18:33:59;10;3;2
42510;PMS7003;28141;51.120;17.114;2022-12-07T18:37:06;10;3;2
42510;PMS7003;28141;51.120;17.114;2022-12-07T18:40:10;10;4;2
42510;PMS7003;28141;51.120;17.114;2022-12-07T18:43:14;11;4;2
42510;PMS7003;28141;51.120;17.114;2022-12-07T18:46:45;10;3;2
42510;PMS7003;28141;51.120;17.114;2022-12-07T18:49:50;10;4;3
42510;PMS7003;28141;51.120;17.114;2022-12-07T18:52:55;13;4;2
42510;PMS7003;28141;51.120;17.114;2022-12-07T18:56:04;10;3;2
42510;PMS7003;28141;51.120;17.114;2022-12-07T18:59:15;10;4;2
42510;PMS7003;28141;51.120;17.114;2022-12-07T19:02:55;9;3;2
42510;PMS7003;28141;51.120;17.114;2022-12-07T19:05:58;11;4;2
42510;PMS7003;28141;51.120;17.114;2022-12-07T19:09:06;13;5;2
42510;PMS7003;28141;51.120;17.114;2022-12-07T19:12:11;11;3;2
42510;PMS7003;28141;51.120;17.114;2022-12-07T19:15:15;11;4;2
42510;PMS7003;28141;51.120;17.114;2022-12-07T19:18:18;12;4;2
42510;PMS7003;28141;51.120;17.114;2022-12-07T19:21:21;10;3;2
42510;PMS7003;28141;51.120;17.114;2022-12-07T19:24:25;9;3;2
42510;PMS7003;28141;51.120;17.114;2022-12-07T19:27:54;10;3;1
42510;PMS7003;28141;51.120;17.114;2022-12-07T19:30:57;11;4;2
42510;PMS7003;28141;51.120;17.114;2022-12-07T19:34:01;11;3;2
42510;PMS7003;28141;51.120;17.114;2022-12-07T19:37:05;11;5;3
42510;PMS7003;28141;51.120;17.114;2022-12-07T19:40:11;11;3;1
42510;PMS7003;28141;51.120;17.114;2022-12-07T19:43:15;10;3;2
42510;PMS7003;28141;51.120;17.114;2022-12-07T19:46:18;11;5;2
42510;PMS7003;28141;51.120;17.114;2022-12-07T19:49:22;10;3;1
42510;PMS7003;28141;51.120;17.114;2022-12-07T19:52:54;11;3;2
42510;PMS7003;28141;51.120;17.114;2022-12-07T19:55:58;14;4;2
42510;PMS7003;28141;51.120;17.114;2022-12-07T19:59:01;10;3;2
42510;PMS7003;28141;51.120;17.114;2022-12-07T20:02:04;10;3;2
42510;PMS7003;28141;51.120;17.114;2022-12-07T20:05:08;13;4;2
42510;PMS7003;28141;51.120;17.114;2022-12-07T20:08:12;11;4;2
42510;PMS7003;28141;51.120;17.114;2022-12-07T20:11:16;12;4;2
42510;PMS7003;28141;51.120;17.114;2022-12-07T20:14:58;10;3;2
42510;PMS7003;28141;51.120;17.114;2022-12-07T20:18:01;10;3;2
42510;PMS7003;28141;51.120;17.114;2022-12-07T20:21:05;11;3;2
42510;PMS7003;28141;51.120;17.114;2022-12-07T20:24:10;10;3;2
42510;PMS7003;28141;51.120;17.114;2022-12-07T20:27:15;12;4;2
42510;PMS7003;28141;51.120;17.114;2022-12-07T20:30:19;11;4;2
42510;PMS7003;28141;51.120;17.114;2022-12-07T20:33:22;10;2;1
42510;PMS7003;28141;51.120;17.114;2022-12-07T20:36:26;11;4;2
42510;PMS7003;28141;51.120;17.114;2022-12-07T20:39:55;10;4;2
42510;PMS7003;28141;51.120;17.114;2022-12-07T20:42:58;10;3;2
42510;PMS7003;28141;51.120;17.114;2022-12-07T20:46:03;10;3;2
42510;PMS7003;28141;51.120;17.114;2022-12-07T20:49:06;10;4;3
42510;PMS7003;28141;51.120;17.114;2022-12-07T20:52:10;11;4;2
42510;PMS7003;28141;51.120;17.114;2022-12-07T20:55:14;10;4;2
42510;PMS7003;28141;51.120;17.114;2022-12-07T20:58:17;11;3;2
42510;PMS7003;28141;51.120;17.114;2022-12-07T21:01:21;12;4;2
42510;PMS7003;28141;51.120;17.114;2022-12-07T21:04:25;10;3;2
42510;PMS7003;28141;51.120;17.114;2022-12-07T21:07:28;10;4;2
42510;PMS7003;28141;51.120;17.114;2022-12-07T21:10:56;10;3;2
42510;PMS7003;28141;51.120;17.114;2022-12-07T21:14:00;13;5;2
42510;PMS7003;28141;51.120;17.114;2022-12-07T21:17:03;11;4;2
42510;PMS7003;28141;51.120;17.114;2022-12-07T21:20:07;10;3;2
42510;PMS7003;28141;51.120;17.114;2022-12-07T21:23:11;10;3;2
42510;PMS7003;28141;51.120;17.114;2022-12-07T21:26:16;10;3;2
42510;PMS7003;28141;51.120;17.114;2022-12-07T21:29:21;11;3;2
42510;PMS7003;28141;51.120;17.114;2022-12-07T21:32:24;11;4;2
42510;PMS7003;28141;51.120;17.114;2022-12-07T21:35:53;10;3;2
42510;PMS7003;28141;51.120;17.114;2022-12-07T21:38:57;13;4;2
42510;PMS7003;28141;51.120;17.114;2022-12-07T21:42:01;10;3;2
42510;PMS7003;28141;51.120;17.114;2022-12-07T21:45:05;10;4;2
42510;PMS7003;28141;51.120;17.114;2022-12-07T21:48:08;12;3;2
42510;PMS7003;28141;51.120;17.114;2022-12-07T21:51:12;11;4;2
42510;PMS7003;28141;51.120;17.114;2022-12-07T21:54:16;12;4;3
42510;PMS7003;28141;51.120;17.114;2022-12-07T21:57:20;11;3;2
42510;PMS7003;28141;51.120;17.114;2022-12-07T22:00:51;10;3;2
42510;PMS7003;28141;51.120;17.114;2022-12-07T22:03:54;11;4;2
42510;PMS7003;28141;51.120;17.114;2022-12-07T22:06:58;10;4;2
42510;PMS7003;28141;51.120;17.114;2022-12-07T22:10:03;10;3;2
42510;PMS7003;28141;51.120;17.114;2022-12-07T22:13:08;10;3;2
42510;PMS7003;28141;51.120;17.114;2022-12-07T22:16:11;11;3;2
42510;PMS7003;28141;51.120;17.114;2022-12-07T22:19:15;11;3;2
42510;PMS7003;28141;51.120;17.114;2022-12-07T22:22:19;12;3;2